createdAt,value
2022-11-29T00:00:54.714Z,2.51
2022-11-29T00:04:12.237Z,2.39
2022-11-29T00:07:35.679Z,2.55
2022-11-29T00:10:46.969Z,2.58
2022-11-29T00:13:50.695Z,2.87
2022-11-29T00:17:04.694Z,2.82
2022-11-29T00:20:12.307Z,2.54
2022-11-29T00:23:25.218Z,2.56
2022-11-29T00:26:32.549Z,2.71
2022-11-29T00:29:46.208Z,2.85
2022-11-29T00:33:03.974Z,2.85
2022-11-29T00:36:27.153Z,2.74
2022-11-29T00:39:49.020Z,2.97
2022-11-29T00:43:10.999Z,3.07
2022-11-29T00:46:31.889Z,2.83
2022-11-29T00:49:55.054Z,2.64
2022-11-29T00:53:16.892Z,2.53
2022-11-29T00:56:33.212Z,2.56
2022-11-29T00:59:53.085Z,2.81
2022-11-29T01:03:23.090Z,3.00
2022-11-29T01:06:45.029Z,2.99
2022-11-29T01:10:08.027Z,2.99
2022-11-29T01:13:32.100Z,3.14
2022-11-29T01:16:49.146Z,3.13
2022-11-29T01:20:16.243Z,3.11
2022-11-29T01:23:30.081Z,2.98
2022-11-29T01:26:45.976Z,3.13
2022-11-29T01:30:16.066Z,3.18
2022-11-29T01:33:36.943Z,3.12
2022-11-29T01:37:00.022Z,3.09
2022-11-29T01:40:24.075Z,2.94
2022-11-29T01:43:40.163Z,2.78
2022-11-29T01:47:01.005Z,2.53
2022-11-29T01:50:24.849Z,2.63
2022-11-29T01:53:47.961Z,2.69
2022-11-29T01:57:11.133Z,2.68
2022-11-29T02:00:30.894Z,2.75
2022-11-29T02:03:54.871Z,2.98
2022-11-29T02:07:05.065Z,3.12
2022-11-29T02:10:13.549Z,3.03
2022-11-29T02:13:41.883Z,3.00
2022-11-29T02:17:00.825Z,2.59
2022-11-29T02:20:40.156Z,2.61
2022-11-29T02:24:10.652Z,2.38
2022-11-29T02:27:48.289Z,2.39
2022-11-29T02:31:20.783Z,2.46
2022-11-29T02:34:40.242Z,2.72
2022-11-29T02:38:33.888Z,2.94
2022-11-29T02:42:16.624Z,2.93
2022-11-29T02:45:39.754Z,2.96
2022-11-29T02:49:12.115Z,2.96
2022-11-29T02:52:54.385Z,2.98
2022-11-29T02:56:13.400Z,2.87
2022-11-29T02:59:24.037Z,2.91
2022-11-29T03:02:47.385Z,2.88
2022-11-29T03:06:03.759Z,2.85
2022-11-29T03:09:29.356Z,2.80
2022-11-29T03:12:44.266Z,2.83
2022-11-29T03:16:05.782Z,2.76
2022-11-29T03:19:45.606Z,2.72
2022-11-29T03:23:16.280Z,2.78
2022-11-29T03:26:45.618Z,2.75
2022-11-29T03:30:10.442Z,2.90
2022-11-29T03:33:45.883Z,2.87
2022-11-29T03:37:31.314Z,2.87
2022-11-29T03:40:59.755Z,2.72
2022-11-29T03:44:22.804Z,2.70
2022-11-29T03:47:59.751Z,2.74
2022-11-29T03:51:16.268Z,2.72
2022-11-29T03:54:47.250Z,2.70
2022-11-29T03:58:12.904Z,2.69
2022-11-29T04:01:21.975Z,2.74
2022-11-29T04:05:00.049Z,2.63
2022-11-29T04:08:43.914Z,2.61
2022-11-29T04:12:27.436Z,2.75
2022-11-29T04:16:13.679Z,2.68
2022-11-29T04:19:54.809Z,2.70
2022-11-29T04:23:47.616Z,2.73
2022-11-29T04:27:21.802Z,2.63
2022-11-29T04:30:56.329Z,2.57
2022-11-29T04:34:38.453Z,2.29
2022-11-29T04:38:00.826Z,2.45
2022-11-29T04:41:34.737Z,2.60
2022-11-29T04:44:56.649Z,2.49
2022-11-29T04:48:45.292Z,2.28
2022-11-29T04:52:05.915Z,2.34
2022-11-29T04:55:34.055Z,2.50
2022-11-29T04:59:31.442Z,2.53
2022-11-29T05:03:26.596Z,2.61
2022-11-29T05:06:41.025Z,2.59
2022-11-29T05:10:03.918Z,2.49
2022-11-29T05:13:23.162Z,2.53
2022-11-29T05:16:49.150Z,2.69
2022-11-29T05:20:10.534Z,2.67
2022-11-29T05:23:51.320Z,2.53
2022-11-29T05:27:32.461Z,2.56
2022-11-29T05:31:40.715Z,2.51
2022-11-29T05:34:58.650Z,2.34
2022-11-29T05:38:35.301Z,2.31
2022-11-29T05:41:59.389Z,2.34
2022-11-29T05:45:27.474Z,2.24
2022-11-29T05:48:45.447Z,2.20
2022-11-29T05:52:15.784Z,2.42
2022-11-29T05:55:40.472Z,2.42
2022-11-29T05:58:51.677Z,2.34
2022-11-29T06:02:35.916Z,2.44
2022-11-29T06:06:01.195Z,2.50
2022-11-29T06:09:31.133Z,2.54
2022-11-29T06:12:56.866Z,2.61
2022-11-29T06:16:50.128Z,2.58
2022-11-29T06:20:14.333Z,2.62
2022-11-29T06:23:41.715Z,2.47
2022-11-29T06:26:58.831Z,2.63
2022-11-29T06:30:19.011Z,2.54
2022-11-29T06:33:52.947Z,2.45
2022-11-29T06:37:21.398Z,2.60
2022-11-29T06:40:25.423Z,2.55
2022-11-29T06:43:45.421Z,2.57
2022-11-29T06:47:07.648Z,2.57
2022-11-29T06:51:02.571Z,2.66
2022-11-29T06:54:11.691Z,2.63
2022-11-29T06:58:13.228Z,2.55
2022-11-29T07:02:08.603Z,2.56
2022-11-29T07:06:07.206Z,2.45
2022-11-29T07:15:53.958Z,2.51
2022-11-29T07:24:04.636Z,2.64
2022-11-29T07:27:28.402Z,2.58
2022-11-29T07:30:53.823Z,2.53
2022-11-29T07:34:09.834Z,2.58
2022-11-29T07:37:46.163Z,2.66
2022-11-29T07:41:47.999Z,2.65
2022-11-29T07:49:33.634Z,2.81
2022-11-29T07:53:25.772Z,2.86
2022-11-29T07:57:17.597Z,2.72
2022-11-29T08:00:28.156Z,2.60
2022-11-29T08:10:47.097Z,2.42
2022-11-29T08:13:58.355Z,2.40
2022-11-29T08:17:56.775Z,2.59
2022-11-29T08:21:07.710Z,2.71
2022-11-29T08:24:16.873Z,2.82
2022-11-29T08:27:25.285Z,2.91
2022-11-29T08:40:54.325Z,2.98
2022-11-29T08:44:11.021Z,3.03
2022-11-29T08:47:44.838Z,3.12
2022-11-29T09:05:53.506Z,3.19
2022-11-29T09:09:29.799Z,3.11
2022-11-29T09:12:59.903Z,3.00
2022-11-29T09:16:26.668Z,2.97
2022-11-29T09:19:42.861Z,3.10
2022-11-29T09:23:02.880Z,3.04
2022-11-29T09:35:34.119Z,3.12
2022-11-29T09:38:39.469Z,3.06
2022-11-29T09:42:29.352Z,2.99
2022-11-29T09:45:58.862Z,3.07
2022-11-29T09:49:56.946Z,3.14
2022-11-29T10:03:19.789Z,3.31
2022-11-29T10:06:50.213Z,3.32
2022-11-29T10:10:46.572Z,3.34
2022-11-29T10:14:01.634Z,3.42
2022-11-29T10:18:18.010Z,3.15
2022-11-29T10:21:38.041Z,3.21
2022-11-29T10:24:58.462Z,3.32
2022-11-29T10:28:33.589Z,3.32
2022-11-29T10:43:38.670Z,3.75
2022-11-29T10:47:11.103Z,3.47
2022-11-29T10:50:45.682Z,3.39
2022-11-29T11:00:07.596Z,3.10
2022-11-29T11:04:24.093Z,3.25
2022-11-29T11:08:35.773Z,3.44
2022-11-29T11:12:54.812Z,3.29
2022-11-29T11:16:18.702Z,3.32
2022-11-29T11:19:38.634Z,3.33
2022-11-29T11:23:50.569Z,3.36
2022-11-29T11:27:37.487Z,3.42
2022-11-29T11:31:09.781Z,3.29
2022-11-29T11:35:17.042Z,3.37
2022-11-29T11:38:26.368Z,3.36
2022-11-29T11:42:17.877Z,3.43
2022-11-29T11:50:50.328Z,3.15
2022-11-29T11:54:16.766Z,2.75
2022-11-29T12:02:51.743Z,3.17
2022-11-29T12:06:03.962Z,3.34
2022-11-29T12:09:11.546Z,3.33
2022-11-29T12:12:39.685Z,3.26
2022-11-29T12:16:12.355Z,3.06
2022-11-29T12:25:07.883Z,3.21
2022-11-29T12:29:06.470Z,3.08
2022-11-29T12:33:07.645Z,2.99
2022-11-29T12:36:52.194Z,3.00
2022-11-29T12:40:47.719Z,3.14
2022-11-29T12:44:56.425Z,3.28
2022-11-29T12:48:19.422Z,3.39
2022-11-29T12:51:55.597Z,3.39
2022-11-29T12:55:54.174Z,3.38
2022-11-29T12:59:51.684Z,3.51
2022-11-29T13:03:15.870Z,3.50
2022-11-29T13:06:53.979Z,3.54
2022-11-29T13:10:33.101Z,3.47
2022-11-29T13:13:52.867Z,3.64
2022-11-29T13:21:57.911Z,3.61
2022-11-29T13:25:37.796Z,3.76
2022-11-29T13:28:42.908Z,3.70
2022-11-29T13:31:49.277Z,3.63
2022-11-29T13:35:11.947Z,3.64
2022-11-29T13:38:49.261Z,3.72
2022-11-29T13:42:33.809Z,3.66
2022-11-29T13:45:58.682Z,3.60
2022-11-29T13:49:31.490Z,3.56
2022-11-29T13:52:48.781Z,3.54
2022-11-29T13:56:03.153Z,3.65
2022-11-29T14:00:13.679Z,3.68
2022-11-29T14:03:29.256Z,3.78
2022-11-29T14:06:41.787Z,3.56
2022-11-29T14:10:10.268Z,3.51
2022-11-29T14:13:30.951Z,3.60
2022-11-29T14:16:53.468Z,3.61
2022-11-29T14:20:25.081Z,3.58
2022-11-29T14:23:36.053Z,3.60
2022-11-29T14:26:55.017Z,3.65
2022-11-29T14:30:52.996Z,3.64
2022-11-29T14:34:34.011Z,3.61
2022-11-29T14:38:30.783Z,3.71
2022-11-29T14:41:52.680Z,3.61
2022-11-29T14:45:16.884Z,3.66
2022-11-29T14:48:38.990Z,3.70
2022-11-29T14:52:28.688Z,3.82
2022-11-29T14:55:39.284Z,3.84
2022-11-29T14:58:45.547Z,3.86
2022-11-29T15:02:00.237Z,3.87
2022-11-29T15:05:18.929Z,3.74
2022-11-29T15:08:52.061Z,3.66
2022-11-29T15:12:04.461Z,3.85
2022-11-29T15:15:36.610Z,3.93
2022-11-29T15:18:59.451Z,3.99
2022-11-29T15:22:18.431Z,4.06
2022-11-29T15:25:24.737Z,4.11
2022-11-29T15:28:32.460Z,4.20
2022-11-29T15:31:50.761Z,4.16
2022-11-29T15:35:07.649Z,4.20
2022-11-29T15:38:35.760Z,4.26
2022-11-29T15:41:57.692Z,4.19
2022-11-29T15:45:32.024Z,4.25
2022-11-29T15:48:46.678Z,4.30
2022-11-29T15:51:57.195Z,4.34
2022-11-29T15:55:26.679Z,4.21
2022-11-29T15:58:44.734Z,4.15
2022-11-29T16:02:09.746Z,4.09
2022-11-29T16:05:34.727Z,3.99
2022-11-29T16:08:57.680Z,3.99
2022-11-29T16:12:19.768Z,3.90
2022-11-29T16:15:41.682Z,3.97
2022-11-29T16:18:57.750Z,3.92
2022-11-29T16:22:17.679Z,3.87
2022-11-29T16:25:38.802Z,3.86
2022-11-29T16:29:03.563Z,3.93
2022-11-29T16:32:50.375Z,3.98
2022-11-29T16:36:11.892Z,3.97
2022-11-29T16:39:24.520Z,3.98
2022-11-29T16:42:33.759Z,3.72
2022-11-29T16:45:49.743Z,3.95
2022-11-29T16:49:42.540Z,3.99
2022-11-29T16:53:38.927Z,3.97
2022-11-29T16:57:02.642Z,3.96
2022-11-29T17:00:27.269Z,3.93
2022-11-29T17:03:43.542Z,4.02
2022-11-29T17:07:10.611Z,3.97
2022-11-29T17:10:35.291Z,4.10
2022-11-29T17:13:52.612Z,4.10
2022-11-29T17:17:11.430Z,4.09
2022-11-29T17:20:31.683Z,4.19
2022-11-29T17:23:47.494Z,4.18
2022-11-29T17:27:15.487Z,4.26
2022-11-29T17:30:32.331Z,4.24
2022-11-29T17:33:55.417Z,4.24
2022-11-29T17:37:29.456Z,4.20
2022-11-29T17:40:49.563Z,4.34
2022-11-29T17:44:09.525Z,4.26
2022-11-29T17:47:31.454Z,4.38
2022-11-29T17:50:49.236Z,4.38
2022-11-29T17:54:12.525Z,4.42
2022-11-29T17:57:43.402Z,4.34
2022-11-29T18:01:06.284Z,4.11
2022-11-29T18:05:19.909Z,4.26
2022-11-29T18:08:36.312Z,4.28
2022-11-29T18:11:53.626Z,4.19
2022-11-29T18:15:10.661Z,4.23
2022-11-29T18:18:16.785Z,4.23
2022-11-29T18:21:23.327Z,4.26
2022-11-29T18:24:39.340Z,4.19
2022-11-29T18:28:02.262Z,4.25
2022-11-29T18:31:25.335Z,4.19
2022-11-29T18:34:48.450Z,4.12
2022-11-29T18:38:16.059Z,4.16
2022-11-29T18:41:22.753Z,4.16
2022-11-29T18:44:29.715Z,4.25
2022-11-29T18:47:35.467Z,4.13
2022-11-29T18:50:44.924Z,4.26
2022-11-29T18:54:08.378Z,4.35
2022-11-29T18:57:31.152Z,4.35
2022-11-29T19:00:54.341Z,4.24
2022-11-29T19:04:10.132Z,4.35
2022-11-29T19:07:48.528Z,4.23
2022-11-29T19:10:57.759Z,4.18
2022-11-29T19:14:23.126Z,4.19
2022-11-29T19:17:53.077Z,4.13
2022-11-29T19:21:20.842Z,4.12
2022-11-29T19:24:38.996Z,4.03
2022-11-29T19:27:55.293Z,3.93
2022-11-29T19:31:17.205Z,3.88
2022-11-29T19:34:45.106Z,3.84
2022-11-29T19:38:09.889Z,3.92
2022-11-29T19:41:31.240Z,3.85
2022-11-29T19:45:15.764Z,3.87
2022-11-29T19:48:16.359Z,3.92
2022-11-29T19:51:38.890Z,3.89
2022-11-29T19:54:59.821Z,3.89
2022-11-29T19:58:21.910Z,3.89
2022-11-29T20:01:42.686Z,3.88
2022-11-29T20:04:59.987Z,3.80
2022-11-29T20:08:28.042Z,3.67
2022-11-29T20:11:52.057Z,3.69
2022-11-29T20:15:14.278Z,3.66
2022-11-29T20:18:37.230Z,3.67
2022-11-29T20:22:00.869Z,3.57
2022-11-29T20:25:22.955Z,3.59
2022-11-29T20:28:42.996Z,3.61
2022-11-29T20:32:06.050Z,3.65
2022-11-29T20:35:28.948Z,3.70
2022-11-29T20:39:03.221Z,3.68
2022-11-29T20:42:16.341Z,3.70
2022-11-29T20:45:31.961Z,3.59
2022-11-29T20:48:52.095Z,3.63
2022-11-29T20:52:18.070Z,3.65
2022-11-29T20:55:32.052Z,3.64
2022-11-29T20:58:47.978Z,3.61
2022-11-29T21:02:19.848Z,3.62
2022-11-29T21:05:39.988Z,3.57
2022-11-29T21:08:55.944Z,3.62
2022-11-29T21:12:03.318Z,3.75
2022-11-29T21:15:12.555Z,3.75
2022-11-29T21:18:23.059Z,3.75
2022-11-29T21:21:53.558Z,3.70
2022-11-29T21:25:17.554Z,3.63
2022-11-29T21:28:40.639Z,3.57
2022-11-29T21:31:59.769Z,3.69
2022-11-29T21:35:25.612Z,3.68
2022-11-29T21:38:29.516Z,3.71
2022-11-29T21:41:56.769Z,3.66
2022-11-29T21:45:30.711Z,3.60
2022-11-29T21:48:52.600Z,3.66
2022-11-29T21:52:02.785Z,3.76
2022-11-29T21:55:31.717Z,3.76
2022-11-29T21:58:58.636Z,3.78
2022-11-29T22:02:21.710Z,3.77
2022-11-29T22:05:44.742Z,3.79
2022-11-29T22:09:00.901Z,3.82
2022-11-29T22:12:38.012Z,3.86
2022-11-29T22:15:56.949Z,3.77
2022-11-29T22:19:17.730Z,3.69
2022-11-29T22:22:38.522Z,3.75
2022-11-29T22:25:59.573Z,3.80
2022-11-29T22:29:21.543Z,3.86
2022-11-29T22:32:44.589Z,3.85
2022-11-29T22:36:06.672Z,3.82
2022-11-29T22:39:26.614Z,3.74
2022-11-29T22:42:43.466Z,3.76
2022-11-29T22:46:06.759Z,3.64
2022-11-29T22:49:31.653Z,3.69
2022-11-29T22:52:51.552Z,3.90
2022-11-29T22:56:15.851Z,3.92
2022-11-29T22:59:32.733Z,4.01
2022-11-29T23:02:55.563Z,4.08
2022-11-29T23:06:17.627Z,4.04
2022-11-29T23:09:37.609Z,4.03
2022-11-29T23:12:57.522Z,3.98
2022-11-29T23:16:08.110Z,3.97
2022-11-29T23:19:12.221Z,3.97
2022-11-29T23:22:28.615Z,3.95
2022-11-29T23:25:54.258Z,3.91
2022-11-29T23:29:16.125Z,3.90
2022-11-29T23:32:38.303Z,4.04
2022-11-29T23:36:01.435Z,4.13
2022-11-29T23:39:23.237Z,4.23
2022-11-29T23:42:47.337Z,4.25
2022-11-29T23:45:57.225Z,4.25
2022-11-29T23:49:13.807Z,4.40
2022-11-29T23:52:36.125Z,4.36
2022-11-29T23:55:52.557Z,4.43
2022-11-29T23:59:21.334Z,4.53
